Time;durP1;ratioP1;P1;durP2;ratioP2;P2;SDS_P1;SDS_P2;PMS_P1;PMS_P2;Temp;Humidity;BMP_temperature;BMP_pressure;BME280_temperature;BME280_humidity;BME280_pressure;Samples;Min_cycle;Max_cycle;Signal;HPM_P1;HPM_P2
2023/12/27 00:09:29;;;;;;;1.13;0.50;;;;;;;;;;20986089;28;20237;-83
2023/12/27 00:19:31;;;;;;;1.30;0.50;;;;;;;;;;20994236;28;20197;-84
2023/12/27 00:29:33;;;;;;;0.50;0.40;;;;;;;;;;20960005;28;20221;-83
2023/12/27 00:39:35;;;;;;;0.70;0.50;;;;;;;;;;20975933;28;20247;-82
2023/12/27 00:49:37;;;;;;;0.60;0.33;;;;;;;;;;20950810;28;20233;-84
2023/12/27 00:59:39;;;;;;;0.50;0.37;;;;;;;;;;20984443;28;20237;-82
2023/12/27 01:09:40;;;;;;;1.00;0.37;;;;;;;;;;20959705;28;20226;-83
2023/12/27 01:19:42;;;;;;;2.63;0.80;;;;;;;;;;20969805;28;20295;-83
2023/12/27 01:29:43;;;;;;;0.87;0.83;;;;;;;;;;21002953;28;20278;-82
2023/12/27 01:39:45;;;;;;;0.40;0.30;;;;;;;;;;20972773;28;20217;-83
2023/12/27 01:49:47;;;;;;;0.50;0.37;;;;;;;;;;21012354;28;20344;-83
2023/12/27 01:59:49;;;;;;;1.53;0.57;;;8.20;99.90;;;;;;20988724;28;20243;-83
2023/12/27 02:09:51;;;;;;;0.53;0.37;;;8.50;99.90;;;;;;20987455;28;20213;-81
2023/12/27 02:19:53;;;;;;;1.93;0.60;;;8.40;99.90;;;;;;20948651;28;20213;-82
2023/12/27 02:29:55;;;;;;;0.57;0.40;;;;;;;;;;20946033;28;20220;-82
2023/12/27 02:39:59;;;;;;;3.07;0.90;;;;;;;;;;20974775;28;20221;-82
2023/12/27 02:50:00;;;;;;;1.13;0.60;;;;;;;;;;20974122;28;20221;-84
2023/12/27 03:00:03;;;;;;;1.30;0.60;;;;;;;;;;20962072;28;20236;-84
2023/12/27 03:10:05;;;;;;;1.17;0.80;;;;;;;;;;20985460;28;20944;-84
2023/12/27 03:20:07;;;;;;;2.67;0.83;;;;;;;;;;20931494;28;20225;-84
2023/12/27 03:30:09;;;;;;;3.73;1.07;;;;;;;;;;20947848;28;20247;-83
2023/12/27 03:40:11;;;;;;;1.27;0.70;;;8.10;99.90;;;;;;20947685;28;20291;-83
2023/12/27 03:50:13;;;;;;;2.63;1.40;;;;;;;;;;20960942;28;20213;-83
2023/12/27 04:00:15;;;;;;;2.10;1.20;;;;;;;;;;20956311;28;20263;-84
2023/12/27 04:10:17;;;;;;;2.37;1.40;;;;;;;;;;20952385;28;20225;-84
2023/12/27 04:20:19;;;;;;;1.40;0.80;;;;;;;;;;20966687;28;20208;-83
2023/12/27 04:30:21;;;;;;;2.03;0.90;;;;;;;;;;20962800;28;20548;-83
2023/12/27 04:40:23;;;;;;;1.67;1.00;;;;;;;;;;21001906;28;20213;-82
2023/12/27 04:50:24;;;;;;;1.40;0.60;;;;;;;;;;20963686;28;20271;-82
2023/12/27 05:00:26;;;;;;;0.93;0.60;;;;;;;;;;20984053;28;20210;-81
2023/12/27 05:10:28;;;;;;;1.47;0.80;;;;;;;;;;20972381;28;20238;-82
2023/12/27 05:20:30;;;;;;;1.50;0.70;;;;;;;;;;20943598;28;20255;-84
2023/12/27 05:30:38;;;;;;;1.80;0.80;;;;;;;;;;20937154;28;20242;-83
2023/12/27 05:40:40;;;;;;;2.30;0.50;;;;;;;;;;20961331;28;20209;-82
2023/12/27 05:50:41;;;;;;;2.33;0.67;;;;;;;;;;20944602;28;20242;-81
2023/12/27 06:00:43;;;;;;;1.77;0.80;;;;;;;;;;20986082;28;20222;-82
2023/12/27 06:10:46;;;;;;;1.53;0.70;;;;;;;;;;20982196;28;20247;-82
2023/12/27 06:20:48;;;;;;;1.00;0.70;;;;;;;;;;21001030;28;20235;-83
2023/12/27 06:30:50;;;;;;;1.97;0.90;;;;;;;;;;20981103;28;20239;-82
2023/12/27 06:40:52;;;;;;;2.53;0.60;;;;;;;;;;20984093;28;20230;-84
2023/12/27 06:50:54;;;;;;;1.27;0.70;;;;;;;;;;20968964;28;20279;-83
2023/12/27 07:00:56;;;;;;;1.97;0.70;;;;;;;;;;20951386;28;20213;-81
2023/12/27 07:10:58;;;;;;;0.90;0.60;;;;;;;;;;20967634;28;20214;-83
2023/12/27 07:20:59;;;;;;;2.77;1.20;;;;;;;;;;20981420;28;20209;-81
2023/12/27 07:31:01;;;;;;;2.00;0.87;;;;;;;;;;20999784;28;20824;-81
2023/12/27 07:41:05;;;;;;;3.07;0.63;;;;;;;;;;20955395;28;20221;-81
2023/12/27 07:51:08;;;;;;;1.10;0.70;;;;;;;;;;20966925;28;20236;-82
2023/12/27 08:01:10;;;;;;;0.73;0.57;;;;;;;;;;21000810;28;20746;-81
2023/12/27 08:11:12;;;;;;;0.87;0.57;;;;;;;;;;20980141;28;20636;-81
2023/12/27 08:21:14;;;;;;;1.70;0.97;;;;;;;;;;20982208;28;20276;-81
2023/12/27 08:31:16;;;;;;;2.27;0.80;;;;;;;;;;20987281;28;20202;-81
2023/12/27 08:41:17;;;;;;;1.17;0.70;;;;;;;;;;21003068;28;20263;-80
2023/12/27 08:51:19;;;;;;;6.47;0.70;;;;;;;;;;20950017;28;20218;-79
2023/12/27 09:01:21;;;;;;;2.57;1.37;;;;;;;;;;20961043;28;20229;-80
2023/12/27 09:11:23;;;;;;;2.00;0.70;;;;;;;;;;20957292;28;20205;-81
2023/12/27 09:21:24;;;;;;;1.10;0.63;;;;;;;;;;20949998;28;20224;-80
2023/12/27 09:31:30;;;;;;;1.73;0.67;;;;;;;;;;20952288;28;20259;-80
2023/12/27 09:41:31;;;;;;;1.50;0.63;;;;;;;;;;20976001;28;20221;-81
2023/12/27 09:51:34;;;;;;;1.70;0.90;;;8.50;99.90;;;;;;20951929;28;20214;-80
2023/12/27 10:01:39;;;;;;;3.17;0.60;;;8.60;99.90;;;;;;20948413;28;20225;-79
2023/12/27 10:11:43;;;;;;;2.47;0.70;;;9.20;99.90;;;;;;20986393;28;20836;-80
2023/12/27 10:21:45;;;;;;;4.23;0.73;;;;;;;;;;20948296;28;20226;-80
2023/12/27 10:31:47;;;;;;;0.80;0.50;;;9.00;99.90;;;;;;20953948;28;20266;-80
2023/12/27 10:41:52;;;;;;;1.07;0.57;;;;;;;;;;20938272;28;20764;-81
2023/12/27 10:51:55;;;;;;;0.50;0.30;;;9.30;99.90;;;;;;20943617;28;20266;-81
2023/12/27 11:01:58;;;;;;;1.30;0.57;;;9.20;99.90;;;;;;20945467;28;20572;-81
2023/12/27 11:12:01;;;;;;;1.00;0.50;;;;;;;;;;20966351;28;20224;-79
2023/12/27 11:22:03;;;;;;;3.57;0.90;;;;;;;;;;20965659;28;20637;-80
2023/12/27 11:32:06;;;;;;;1.70;0.90;;;8.80;99.90;;;;;;20967534;28;20788;-80
2023/12/27 11:42:08;;;;;;;1.80;0.73;;;;;;;;;;20945147;28;20229;-79
2023/12/27 11:52:11;;;;;;;1.20;0.60;;;;;;;;;;20975871;28;20216;-80
2023/12/27 12:02:14;;;;;;;3.77;0.70;;;;;;;;;;20969744;28;20291;-80
2023/12/27 12:12:15;;;;;;;3.40;0.90;;;9.20;99.90;;;;;;20938967;28;20267;-80
2023/12/27 12:22:18;;;;;;;0.83;0.40;;;;;;;;;;20953247;28;20217;-80
2023/12/27 12:32:20;;;;;;;1.30;0.80;;;;;;;;;;20962687;28;20226;-80
2023/12/27 12:42:24;;;;;;;2.70;1.10;;;;;;;;;;20971203;28;20281;-79
2023/12/27 12:52:27;;;;;;;0.50;0.30;;;;;;;;;;20988287;28;20678;-79
2023/12/27 13:02:28;;;;;;;1.53;0.70;;;;;;;;;;21012143;28;20236;-79
2023/12/27 13:12:31;;;;;;;1.20;0.70;;;;;;;;;;21000806;28;20209;-80
2023/12/27 13:22:32;;;;;;;2.07;0.53;;;;;;;;;;20947231;28;20226;-79
2023/12/27 13:32:35;;;;;;;2.60;0.70;;;;;;;;;;20961502;28;20659;-80
2023/12/27 13:42:37;;;;;;;1.33;0.80;;;;;;;;;;20939706;28;20217;-78
2023/12/27 13:52:39;;;;;;;1.30;0.60;;;;;;;;;;20960706;28;20214;-80
2023/12/27 14:02:41;;;;;;;2.83;1.40;;;;;;;;;;20951106;28;20221;-80
2023/12/27 14:12:42;;;;;;;0.87;0.60;;;;;;;;;;20946788;28;20622;-79
2023/12/27 14:22:44;;;;;;;1.60;0.70;;;;;;;;;;20958540;28;20294;-80
2023/12/27 14:32:46;;;;;;;4.07;1.40;;;;;;;;;;20991808;28;20213;-79
2023/12/27 14:42:48;;;;;;;2.93;1.30;;;;;;;;;;20931176;28;20224;-79
2023/12/27 14:52:50;;;;;;;3.07;0.90;;;;;;;;;;20934772;28;20631;-78
2023/12/27 15:02:52;;;;;;;1.27;0.73;;;;;;;;;;20947041;28;20222;-80
2023/12/27 15:12:54;;;;;;;3.10;0.90;;;;;;;;;;20948666;28;20707;-80
2023/12/27 15:23:00;;;;;;;2.83;1.10;;;;;;;;;;20951019;28;20690;-80
2023/12/27 15:33:03;;;;;;;2.47;1.40;;;;;;;;;;20939646;28;20645;-80
2023/12/27 15:43:05;;;;;;;1.63;0.83;;;;;;;;;;20950432;28;20274;-78
2023/12/27 15:53:07;;;;;;;1.50;0.90;;;;;;;;;;20973742;28;20282;-79
2023/12/27 16:03:09;;;;;;;4.73;1.07;;;;;;;;;;20973119;28;20221;-79
2023/12/27 16:13:12;;;;;;;1.93;1.10;;;;;;;;;;20974036;28;20588;-80
2023/12/27 16:23:19;;;;;;;2.53;1.10;;;;;;;;;;20953720;28;20226;-81
2023/12/27 16:33:24;;;;;;;2.73;1.30;;;;;;;;;;20990552;28;20221;-80
2023/12/27 16:43:32;;;;;;;3.77;1.47;;;7.50;99.90;;;;;;20994629;28;20221;-80
2023/12/27 16:53:34;;;;;;;2.97;1.00;;;;;;;;;;20987341;28;20222;-81
2023/12/27 17:03:42;;;;;;;4.23;1.17;;;;;;;;;;20972915;28;20229;-79
2023/12/27 17:13:44;;;;;;;3.77;1.80;;;;;;;;;;21002607;28;20577;-79
2023/12/27 17:23:51;;;;;;;3.73;2.07;;;;;;;;;;21023173;28;20225;-81
2023/12/27 17:33:53;;;;;;;1.93;0.97;;;;;;;;;;20997160;28;20209;-82
2023/12/27 17:43:56;;;;;;;4.80;1.43;;;;;;;;;;20982933;28;20255;-80
2023/12/27 17:53:58;;;;;;;2.77;1.37;;;;;;;;;;20961359;28;20288;-82
2023/12/27 18:04:01;;;;;;;2.73;1.30;;;;;;;;;;20931788;28;20245;-82
2023/12/27 18:14:03;;;;;;;1.70;1.07;;;;;;;;;;20961411;28;20823;-81
2023/12/27 18:24:05;;;;;;;2.17;1.10;;;;;;;;;;20954910;28;20221;-80
2023/12/27 18:34:07;;;;;;;2.43;1.10;;;;;;;;;;20991635;28;20266;-79
2023/12/27 18:44:09;;;;;;;2.97;1.60;;;;;;;;;;20965141;28;20687;-79
2023/12/27 18:54:12;;;;;;;2.97;1.30;;;;;;;;;;20973219;28;20682;-79
2023/12/27 19:04:14;;;;;;;2.17;1.07;;;;;;;;;;20953121;28;20248;-78
2023/12/27 19:14:16;;;;;;;1.27;0.83;;;;;;;;;;20985241;28;20538;-81
2023/12/27 19:24:20;;;;;;;2.80;1.90;;;;;;;;;;20986792;28;20222;-77
2023/12/27 19:34:23;;;;;;;1.97;1.10;;;;;;;;;;20948992;28;20290;-79
2023/12/27 19:44:24;;;;;;;2.97;1.10;;;;;;;;;;20990889;28;20298;-77
2023/12/27 19:54:26;;;;;;;0.73;0.67;;;;;;;;;;20976268;28;20212;-78
2023/12/27 20:04:28;;;;;;;1.77;0.77;;;;;;;;;;20978926;28;20226;-77
2023/12/27 20:14:30;;;;;;;2.17;1.40;;;7.10;99.90;;;;;;21018928;28;20291;-78
2023/12/27 20:24:32;;;;;;;2.43;1.30;;;6.90;99.90;;;;;;20965791;28;20233;-78
2023/12/27 20:34:36;;;;;;;2.90;1.40;;;;;;;;;;20954927;28;20226;-80
2023/12/27 20:44:37;;;;;;;2.07;1.17;;;;;;;;;;20976057;28;20268;-81
2023/12/27 20:54:39;;;;;;;1.67;1.00;;;;;;;;;;20984945;28;20206;-83
2023/12/27 21:04:42;;;;;;;1.43;0.73;;;;;;;;;;20980306;28;20226;-82
2023/12/27 21:14:43;;;;;;;0.67;0.47;;;;;;;;;;20968169;28;20225;-81
2023/12/27 21:24:45;;;;;;;2.27;0.80;;;;;;;;;;20964916;28;20225;-80
2023/12/27 21:34:47;;;;;;;0.80;0.50;;;;;;;;;;20951075;28;20222;-80
2023/12/27 21:44:49;;;;;;;1.07;0.60;;;;;;;;;;20972711;28;20698;-80
2023/12/27 21:54:51;;;;;;;1.57;0.70;;;;;;;;;;20964522;28;20302;-81
2023/12/27 22:04:52;;;;;;;0.77;0.40;;;;;;;;;;20936607;28;20279;-79
2023/12/27 22:14:54;;;;;;;1.27;0.50;;;;;;;;;;20957998;28;20275;-80
2023/12/27 22:24:56;;;;;;;1.23;0.80;;;;;;;;;;20972773;28;20225;-82
2023/12/27 22:34:57;;;;;;;1.60;0.80;;;;;;;;;;20965582;28;20213;-82
2023/12/27 22:45:01;;;;;;;1.33;0.83;;;;;;;;;;20944411;28;20233;-81
2023/12/27 22:55:03;;;;;;;0.83;0.60;;;;;;;;;;20907788;28;20622;-79
2023/12/27 23:05:04;;;;;;;1.70;0.70;;;;;;;;;;20952317;28;20722;-82
2023/12/27 23:15:06;;;;;;;1.43;1.03;;;;;;;;;;20972108;28;20218;-81
2023/12/27 23:25:11;;;;;;;1.60;0.83;;;;;;;;;;20959644;28;20243;-83
2023/12/27 23:35:12;;;;;;;3.17;1.00;;;;;;;;;;21003948;28;20244;-81
2023/12/27 23:45:14;;;;;;;2.10;1.13;;;;;;;;;;21006751;28;20229;-84
2023/12/27 23:55:16;;;;;;;1.90;1.10;;;;;;;;;;20981707;28;20315;-85
